createdAt,value
2019-03-19T00:02:16.925Z,101921.71
2019-03-19T00:04:48.932Z,101929.70
2019-03-19T00:07:20.969Z,101935.16
2019-03-19T00:09:52.995Z,101947.02
2019-03-19T00:12:25.019Z,101952.28
2019-03-19T00:14:57.025Z,101960.59
2019-03-19T00:17:29.269Z,101965.31
2019-03-19T00:20:01.302Z,101965.08
2019-03-19T00:22:33.277Z,101959.09
2019-03-19T00:25:05.859Z,101961.59
2019-03-19T00:27:37.862Z,101964.81
2019-03-19T00:30:20.196Z,101973.05
2019-03-19T00:32:52.179Z,101984.31
2019-03-19T00:35:24.146Z,101986.33
2019-03-19T00:37:56.195Z,101984.86
2019-03-19T00:40:28.228Z,101987.50
2019-03-19T00:43:00.232Z,101986.57
2019-03-19T00:45:33.176Z,101987.34
2019-03-19T00:48:05.286Z,101997.12
2019-03-19T00:50:37.532Z,101994.80
2019-03-19T00:53:12.293Z,101996.20
2019-03-19T00:55:44.302Z,101994.91
2019-03-19T00:58:16.353Z,102008.00
2019-03-19T01:00:48.394Z,102016.19
2019-03-19T01:03:21.405Z,102014.36
2019-03-19T01:05:53.652Z,102018.91
2019-03-19T01:08:25.632Z,102019.59
2019-03-19T01:10:58.918Z,102016.86
2019-03-19T01:13:30.991Z,102015.63
2019-03-19T01:16:03.995Z,102021.59
2019-03-19T01:18:38.368Z,102018.76
2019-03-19T01:21:10.461Z,102016.91
2019-03-19T01:23:42.516Z,102021.02
2019-03-19T01:26:15.102Z,102031.52
2019-03-19T01:28:47.180Z,102029.87
2019-03-19T01:31:19.251Z,102036.17
2019-03-19T01:33:51.524Z,102034.70
2019-03-19T01:36:23.578Z,102042.83
2019-03-19T01:38:55.645Z,102042.53
2019-03-19T01:52:31.301Z,102061.63
2019-03-19T01:55:03.910Z,102062.45
2019-03-19T01:57:36.061Z,102066.09
2019-03-19T02:00:20.966Z,102065.14
2019-03-19T02:02:53.020Z,102069.54
2019-03-19T02:05:25.614Z,102077.21
2019-03-19T02:07:57.805Z,102077.95
2019-03-19T02:10:29.788Z,102078.48
2019-03-19T02:13:01.923Z,102077.70
2019-03-19T02:15:34.128Z,102085.80
2019-03-19T02:18:06.894Z,102084.55
2019-03-19T02:20:40.157Z,102086.23
2019-03-19T02:23:13.024Z,102088.54
2019-03-19T02:25:45.569Z,102093.11
2019-03-19T02:28:17.845Z,102093.63
2019-03-19T02:30:50.056Z,102101.14
2019-03-19T02:33:22.408Z,102112.08
2019-03-19T02:35:54.401Z,102112.25
2019-03-19T02:38:27.138Z,102119.18
2019-03-19T02:40:59.316Z,102121.55
2019-03-19T02:43:31.545Z,102131.02
2019-03-19T02:46:04.466Z,102136.06
2019-03-19T02:48:38.485Z,102140.30
2019-03-19T02:51:10.487Z,102128.89
2019-03-19T02:53:45.611Z,102131.48
2019-03-19T02:56:31.762Z,102133.34
2019-03-19T02:58:51.810Z,102135.36
2019-03-19T03:01:24.778Z,102135.59
2019-03-19T03:03:56.744Z,102137.40
2019-03-19T03:06:29.184Z,102136.75
2019-03-19T03:09:23.005Z,102148.94
2019-03-19T03:15:55.456Z,102147.18
2019-03-19T03:28:55.160Z,102168.30
2019-03-19T03:52:31.841Z,102188.48
2019-03-19T03:55:12.932Z,102191.47
2019-03-19T03:57:45.110Z,102197.20
2019-03-19T04:00:24.128Z,102197.30
2019-03-19T04:02:56.291Z,102206.58
2019-03-19T04:05:38.335Z,102204.47
2019-03-19T04:31:56.323Z,102244.83
2019-03-19T04:34:30.959Z,102243.66
2019-03-19T04:37:05.928Z,102246.36
2019-03-19T04:39:39.664Z,102241.64
2019-03-19T04:42:12.177Z,102245.70
2019-03-19T04:45:00.918Z,102240.86
2019-03-19T04:47:37.062Z,102256.09
2019-03-19T04:50:16.774Z,102249.93
2019-03-19T04:52:48.904Z,102248.89
2019-03-19T04:55:24.329Z,102256.59
2019-03-19T04:57:56.768Z,102257.03
2019-03-19T05:00:28.957Z,102258.74
2019-03-19T05:03:00.939Z,102266.86
2019-03-19T05:05:32.956Z,102271.62
2019-03-19T05:08:05.023Z,102280.25
2019-03-19T05:10:37.955Z,102284.22
2019-03-19T05:13:10.016Z,102281.19
2019-03-19T05:15:42.090Z,102285.18
2019-03-19T05:18:14.096Z,102290.23
2019-03-19T05:20:46.579Z,102287.70
2019-03-19T05:23:18.671Z,102299.01
2019-03-19T05:25:50.762Z,102305.09
2019-03-19T05:28:23.379Z,102308.52
2019-03-19T05:30:56.008Z,102307.11
2019-03-19T05:33:28.660Z,102313.52
2019-03-19T05:36:02.342Z,102315.02
2019-03-19T05:38:34.328Z,102316.00
2019-03-19T05:41:07.162Z,102321.01
2019-03-19T05:43:40.852Z,102323.45
2019-03-19T05:46:12.899Z,102321.98
2019-03-19T05:48:46.603Z,102329.83
2019-03-19T05:51:23.074Z,102328.52
2019-03-19T05:54:02.331Z,102328.09
2019-03-19T05:56:42.763Z,102326.28
2019-03-19T05:59:18.448Z,102333.31
2019-03-19T06:01:53.921Z,102333.27
2019-03-19T06:04:29.987Z,102341.23
2019-03-19T06:07:07.621Z,102346.76
2019-03-19T06:13:15.913Z,102348.71
2019-03-19T06:16:17.984Z,102351.33
2019-03-19T06:19:19.714Z,102357.44
2019-03-19T06:25:15.049Z,102369.73
2019-03-19T06:27:59.899Z,102376.99
2019-03-19T06:30:27.258Z,102378.76
2019-03-19T06:33:04.267Z,102382.37
2019-03-19T06:35:41.532Z,102390.07
2019-03-19T06:38:19.574Z,102387.58
2019-03-19T06:41:09.308Z,102389.67
2019-03-19T06:50:50.177Z,102399.94
2019-03-19T07:03:24.250Z,102413.09
2019-03-19T07:06:06.183Z,102416.13
2019-03-19T07:08:38.513Z,102421.84
2019-03-19T07:11:10.591Z,102436.22
2019-03-19T07:13:42.642Z,102434.67
2019-03-19T07:16:14.699Z,102441.59
2019-03-19T07:18:46.806Z,102439.42
2019-03-19T07:21:18.872Z,102445.19
2019-03-19T07:23:51.023Z,102449.19
2019-03-19T07:26:23.179Z,102441.05
2019-03-19T07:28:57.214Z,102446.91
2019-03-19T07:31:31.101Z,102450.83
2019-03-19T07:34:03.378Z,102450.59
2019-03-19T07:36:48.063Z,102458.13
2019-03-19T07:39:15.860Z,102461.45
2019-03-19T07:41:49.389Z,102461.22
2019-03-19T07:44:21.493Z,102460.39
2019-03-19T07:46:59.413Z,102466.38
2019-03-19T07:49:33.799Z,102462.78
2019-03-19T07:52:06.010Z,102461.72
2019-03-19T07:54:39.714Z,102469.94
2019-03-19T07:57:12.491Z,102467.33
2019-03-19T07:59:48.942Z,102468.27
2019-03-19T08:02:23.624Z,102474.47
2019-03-19T08:04:58.017Z,102478.17
2019-03-19T08:07:30.860Z,102475.14
2019-03-19T08:10:03.327Z,102478.19
2019-03-19T08:12:37.169Z,102485.03
2019-03-19T08:15:16.528Z,102492.41
2019-03-19T08:17:49.596Z,102503.14
2019-03-19T08:20:21.764Z,102508.60
2019-03-19T08:22:56.407Z,102511.78
2019-03-19T08:25:28.616Z,102528.73
2019-03-19T08:28:00.968Z,102535.56
2019-03-19T08:30:34.227Z,102535.19
2019-03-19T08:33:06.320Z,102540.38
2019-03-19T08:35:39.191Z,102531.77
2019-03-19T08:38:11.649Z,102528.56
2019-03-19T08:40:44.108Z,102542.25
2019-03-19T08:43:16.432Z,102540.38
2019-03-19T08:45:50.522Z,102541.58
2019-03-19T08:48:22.909Z,102542.81
2019-03-19T08:50:56.180Z,102545.27
2019-03-19T08:53:31.502Z,102546.89
2019-03-19T08:56:03.727Z,102548.98
2019-03-19T08:58:35.778Z,102548.74
2019-03-19T09:01:07.903Z,102554.06
2019-03-19T09:03:40.134Z,102563.84
2019-03-19T09:06:12.345Z,102569.47
2019-03-19T09:08:44.566Z,102569.59
2019-03-19T09:11:17.214Z,102566.11
2019-03-19T09:14:11.156Z,102571.78
2019-03-19T09:17:07.307Z,102576.22
2019-03-19T09:22:51.581Z,102593.65
2019-03-19T09:25:39.627Z,102590.47
2019-03-19T09:28:26.889Z,102596.16
2019-03-19T09:31:06.455Z,102603.53
2019-03-19T09:33:42.968Z,102605.08
2019-03-19T09:36:20.057Z,102605.31
2019-03-19T09:38:52.219Z,102602.58
2019-03-19T09:41:33.862Z,102612.23
2019-03-19T09:44:04.760Z,102614.13
2019-03-19T09:46:36.277Z,102620.48
2019-03-19T09:49:09.147Z,102620.52
2019-03-19T09:51:43.460Z,102626.15
2019-03-19T09:57:31.524Z,102634.41
2019-03-19T10:00:31.553Z,102639.70
2019-03-19T10:03:09.361Z,102643.44
2019-03-19T10:05:41.842Z,102641.69
2019-03-19T10:08:17.317Z,102645.70
2019-03-19T10:10:49.634Z,102649.61
2019-03-19T10:13:27.616Z,102645.88
2019-03-19T10:16:03.646Z,102646.58
2019-03-19T10:18:50.435Z,102646.73
2019-03-19T10:21:22.383Z,102651.04
2019-03-19T10:24:12.888Z,102653.19
2019-03-19T10:27:04.532Z,102650.83
2019-03-19T10:29:52.708Z,102655.66
2019-03-19T10:32:26.175Z,102658.70
2019-03-19T10:34:58.495Z,102654.41
2019-03-19T10:37:35.307Z,102662.05
2019-03-19T10:40:16.982Z,102660.79
2019-03-19T10:42:57.130Z,102675.48
2019-03-19T10:45:36.205Z,102671.91
2019-03-19T10:48:08.389Z,102680.95
2019-03-19T10:50:40.632Z,102678.47
2019-03-19T10:53:12.767Z,102681.97
2019-03-19T10:55:45.028Z,102685.02
2019-03-19T10:58:17.545Z,102690.78
2019-03-19T11:00:49.639Z,102693.81
2019-03-19T11:03:30.294Z,102706.94
2019-03-19T11:06:04.303Z,102704.02
2019-03-19T11:08:41.971Z,102710.97
2019-03-19T11:11:15.278Z,102707.56
2019-03-19T11:13:47.252Z,102707.02
2019-03-19T11:16:19.309Z,102707.11
2019-03-19T11:18:51.365Z,102713.01
2019-03-19T11:21:25.417Z,102717.06
2019-03-19T11:24:00.662Z,102722.64
2019-03-19T11:26:35.025Z,102716.70
2019-03-19T11:29:08.809Z,102715.61
2019-03-19T11:31:45.626Z,102714.97
2019-03-19T11:34:18.626Z,102717.25
2019-03-19T11:37:06.438Z,102713.16
2019-03-19T11:39:40.268Z,102718.08
2019-03-19T11:42:30.764Z,102724.72
2019-03-19T11:44:56.484Z,102726.94
2019-03-19T11:47:31.549Z,102734.08
2019-03-19T11:50:25.617Z,102727.35
2019-03-19T11:52:58.063Z,102734.86
2019-03-19T11:55:30.510Z,102733.55
2019-03-19T11:58:02.601Z,102737.55
2019-03-19T12:00:36.610Z,102733.81
2019-03-19T12:03:15.368Z,102730.90
2019-03-19T12:05:48.902Z,102739.88
2019-03-19T12:08:21.336Z,102741.91
2019-03-19T12:10:53.415Z,102744.42
2019-03-19T12:13:25.600Z,102744.16
2019-03-19T12:15:58.166Z,102749.38
2019-03-19T12:18:36.665Z,102758.10
2019-03-19T12:21:10.405Z,102756.89
2019-03-19T12:23:46.779Z,102760.81
2019-03-19T12:26:19.236Z,102764.58
2019-03-19T12:28:57.403Z,102764.80
2019-03-19T12:31:29.272Z,102767.58
2019-03-19T12:34:01.994Z,102769.78
2019-03-19T12:36:34.833Z,102767.30
2019-03-19T12:39:09.762Z,102775.05
2019-03-19T12:41:48.556Z,102775.86
2019-03-19T12:51:26.859Z,102772.77
2019-03-19T12:54:03.513Z,102769.34
2019-03-19T12:56:47.086Z,102769.75
2019-03-19T12:59:20.607Z,102775.94
2019-03-19T13:01:53.141Z,102768.05
2019-03-19T13:04:25.326Z,102768.25
2019-03-19T13:06:58.423Z,102766.98
2019-03-19T13:09:30.394Z,102777.41
2019-03-19T13:12:02.427Z,102772.23
2019-03-19T13:14:35.856Z,102775.25
2019-03-19T13:17:08.927Z,102780.64
2019-03-19T13:19:40.976Z,102779.64
2019-03-19T13:22:14.378Z,102784.89
2019-03-19T13:24:46.732Z,102785.22
2019-03-19T13:27:19.195Z,102786.80
2019-03-19T13:29:51.273Z,102786.14
2019-03-19T13:32:23.603Z,102792.50
2019-03-19T13:34:56.309Z,102790.98
2019-03-19T13:37:28.370Z,102787.64
2019-03-19T13:40:00.553Z,102786.80
2019-03-19T13:42:32.887Z,102790.88
2019-03-19T13:45:09.092Z,102790.32
2019-03-19T13:47:41.090Z,102794.45
2019-03-19T13:50:20.098Z,102794.95
2019-03-19T13:52:52.136Z,102797.48
2019-03-19T13:55:25.659Z,102804.43
2019-03-19T13:57:57.721Z,102804.03
2019-03-19T14:00:29.845Z,102805.63
2019-03-19T14:03:01.940Z,102806.64
2019-03-19T14:05:34.345Z,102813.28
2019-03-19T14:08:11.531Z,102817.58
2019-03-19T14:10:54.275Z,102822.91
2019-03-19T14:13:35.783Z,102820.42
2019-03-19T14:16:20.454Z,102825.88
2019-03-19T14:18:58.954Z,102826.92
2019-03-19T14:21:43.779Z,102833.44
2019-03-19T14:27:25.091Z,102824.32
2019-03-19T14:29:58.220Z,102832.80
2019-03-19T14:32:30.712Z,102838.67
2019-03-19T14:35:20.527Z,102842.41
2019-03-19T14:38:15.296Z,102840.09
2019-03-19T14:44:00.168Z,102848.19
2019-03-19T14:46:34.158Z,102848.12
2019-03-19T14:49:06.494Z,102849.25
2019-03-19T14:51:39.752Z,102853.76
2019-03-19T14:54:16.682Z,102851.66
2019-03-19T15:00:02.446Z,102853.23
2019-03-19T15:02:52.361Z,102855.27
2019-03-19T15:05:27.192Z,102858.77
2019-03-19T15:08:02.184Z,102862.66
2019-03-19T15:10:36.359Z,102855.48
2019-03-19T15:16:29.536Z,102859.09
2019-03-19T15:19:09.029Z,102860.03
2019-03-19T15:21:41.112Z,102860.09
2019-03-19T15:24:13.585Z,102865.64
2019-03-19T15:26:46.748Z,102862.25
2019-03-19T15:29:42.293Z,102865.50
2019-03-19T15:42:04.889Z,102867.91
2019-03-19T15:44:37.002Z,102863.80
2019-03-19T15:47:09.340Z,102868.33
2019-03-19T15:49:41.488Z,102871.66
2019-03-19T15:52:13.575Z,102870.35
2019-03-19T15:54:45.604Z,102877.54
2019-03-19T15:57:19.301Z,102879.52
2019-03-19T15:59:51.521Z,102878.95
2019-03-19T16:02:23.538Z,102879.45
2019-03-19T16:04:55.910Z,102891.26
2019-03-19T16:07:28.411Z,102888.02
2019-03-19T16:10:05.142Z,102891.09
2019-03-19T16:12:38.491Z,102888.84
2019-03-19T16:15:22.453Z,102893.73
2019-03-19T16:18:02.037Z,102898.44
2019-03-19T16:20:39.412Z,102901.80
2019-03-19T16:23:24.121Z,102903.28
2019-03-19T16:26:11.751Z,102909.44
2019-03-19T16:32:10.405Z,102913.27
2019-03-19T16:44:46.437Z,102921.51
2019-03-19T16:47:54.615Z,102926.03
2019-03-19T16:50:37.238Z,102932.00
2019-03-19T16:53:14.005Z,102936.13
2019-03-19T16:55:55.125Z,102935.34
2019-03-19T16:58:27.348Z,102932.91
2019-03-19T17:01:02.484Z,102936.81
2019-03-19T17:03:38.092Z,102942.39
2019-03-19T17:06:10.836Z,102944.59
2019-03-19T17:08:43.215Z,102939.83
2019-03-19T17:11:15.898Z,102943.51
2019-03-19T17:13:48.310Z,102948.66
2019-03-19T17:16:23.143Z,102949.75
2019-03-19T17:18:55.377Z,102954.80
2019-03-19T17:21:27.510Z,102956.34
2019-03-19T17:24:03.701Z,102958.23
2019-03-19T17:26:36.182Z,102965.55
2019-03-19T17:29:14.984Z,102965.63
2019-03-19T17:31:50.617Z,102968.81
2019-03-19T17:34:24.672Z,102964.14
2019-03-19T17:37:02.700Z,102969.67
2019-03-19T17:39:37.532Z,102979.78
2019-03-19T17:42:13.555Z,102974.12
2019-03-19T17:44:45.829Z,102978.16
2019-03-19T17:47:18.198Z,102982.19
2019-03-19T17:49:50.578Z,102977.86
2019-03-19T17:52:22.737Z,102981.72
2019-03-19T17:54:59.204Z,102979.70
2019-03-19T17:57:31.199Z,102988.11
2019-03-19T18:00:03.541Z,102990.36
2019-03-19T18:02:38.055Z,102989.27
2019-03-19T18:05:39.235Z,102985.93
2019-03-19T18:08:28.386Z,102984.86
2019-03-19T18:11:05.140Z,102988.34
2019-03-19T18:13:38.391Z,102994.23
2019-03-19T18:16:10.500Z,103001.48
2019-03-19T18:18:42.540Z,103011.28
2019-03-19T18:21:15.584Z,103011.55
2019-03-19T18:23:48.575Z,103009.91
2019-03-19T18:29:21.350Z,103021.97
2019-03-19T18:31:53.751Z,103030.65
2019-03-19T18:34:26.573Z,103032.40
2019-03-19T18:36:58.980Z,103032.48
2019-03-19T18:39:31.299Z,103027.45
2019-03-19T18:42:03.454Z,103029.44
2019-03-19T18:44:36.598Z,103034.42
2019-03-19T19:04:18.590Z,103068.37
2019-03-19T19:06:50.966Z,103073.34
2019-03-19T19:09:23.909Z,103079.86
2019-03-19T19:11:55.845Z,103083.55
2019-03-19T19:14:27.887Z,103087.47
2019-03-19T19:17:00.646Z,103093.61
2019-03-19T19:19:32.633Z,103096.54
2019-03-19T19:22:04.618Z,103099.10
2019-03-19T19:24:36.970Z,103106.61
2019-03-19T19:41:09.235Z,103125.54
2019-03-19T19:46:52.201Z,103131.59
2019-03-19T19:49:24.256Z,103131.45
2019-03-19T19:55:09.554Z,103134.97
2019-03-19T19:57:42.025Z,103133.92
2019-03-19T20:00:23.753Z,103140.67
2019-03-19T20:10:28.126Z,103149.92
2019-03-19T20:13:01.074Z,103150.63
2019-03-19T20:22:58.729Z,103145.83
2019-03-19T20:25:31.035Z,103151.63
2019-03-19T20:31:09.107Z,103152.73
2019-03-19T20:33:41.168Z,103154.90
2019-03-19T20:36:13.306Z,103159.48
2019-03-19T21:36:17.703Z,103195.20
2019-03-19T21:52:38.157Z,103209.13
2019-03-19T21:55:15.935Z,103205.81
2019-03-19T21:57:52.222Z,103204.34
2019-03-19T22:03:41.964Z,103205.34
2019-03-19T22:09:09.287Z,103208.65
2019-03-19T22:11:43.557Z,103205.81
2019-03-19T22:35:15.473Z,103196.84
2019-03-19T22:37:47.570Z,103201.71
2019-03-19T22:40:20.144Z,103198.86
2019-03-19T22:42:53.114Z,103198.45
2019-03-19T22:45:25.900Z,103196.59
2019-03-19T22:47:58.962Z,103201.22
2019-03-19T22:50:31.273Z,103200.66
2019-03-19T22:53:04.867Z,103198.96
2019-03-19T22:55:38.190Z,103200.06
2019-03-19T22:58:10.613Z,103197.39
2019-03-19T23:11:44.255Z,103202.37
2019-03-19T23:14:16.482Z,103206.60
2019-03-19T23:17:00.963Z,103201.09
2019-03-19T23:19:59.677Z,103207.13
2019-03-19T23:22:44.622Z,103210.13
2019-03-19T23:25:31.776Z,103211.06
2019-03-19T23:28:24.068Z,103207.09
2019-03-19T23:31:03.485Z,103210.10
2019-03-19T23:33:37.318Z,103212.06
2019-03-19T23:36:10.495Z,103215.31
2019-03-19T23:38:42.552Z,103221.00
2019-03-19T23:44:30.641Z,103219.23
2019-03-19T23:47:02.831Z,103219.56
2019-03-19T23:49:35.064Z,103225.73
2019-03-19T23:52:07.148Z,103228.83
2019-03-19T23:54:39.235Z,103226.52
2019-03-19T23:57:11.507Z,103231.39
2019-03-19T23:59:46.228Z,103232.12
